createdAt,value
2018-04-28T00:00:29.781Z,100225.17
2018-04-28T00:03:00.733Z,100221.63
2018-04-28T00:05:29.106Z,100223.66
2018-04-28T00:07:57.410Z,100225.03
2018-04-28T00:10:25.682Z,100227.88
2018-04-28T00:12:53.987Z,100229.97
2018-04-28T00:15:22.237Z,100229.47
2018-04-28T00:17:50.513Z,100228.23
2018-04-28T00:20:20.534Z,100226.29
2018-04-28T00:25:50.253Z,100233.45
2018-04-28T00:28:20.237Z,100230.92
2018-04-28T00:33:44.205Z,100243.00
2018-04-28T00:36:21.354Z,100240.19
2018-04-28T00:38:59.253Z,100244.05
2018-04-28T00:41:30.805Z,100251.42
2018-04-28T00:44:16.871Z,100255.33
2018-04-28T00:46:45.889Z,100253.13
2018-04-28T00:49:15.493Z,100250.66
2018-04-28T00:51:52.513Z,100248.98
2018-04-28T00:54:27.225Z,100254.69
2018-04-28T00:56:57.033Z,100253.39
2018-04-28T00:59:25.301Z,100246.50
2018-04-28T01:01:57.073Z,100256.70
2018-04-28T01:04:37.883Z,100260.04
2018-04-28T01:07:06.163Z,100257.98
2018-04-28T01:09:34.449Z,100267.33
2018-04-28T01:12:02.738Z,100259.92
2018-04-28T01:14:39.845Z,100266.69
2018-04-28T01:17:11.922Z,100264.98
2018-04-28T01:19:44.799Z,100267.83
2018-04-28T01:22:13.089Z,100271.98
2018-04-28T01:24:44.129Z,100268.01
2018-04-28T01:27:15.278Z,100266.90
2018-04-28T01:29:50.333Z,100274.59
2018-04-28T01:32:19.918Z,100277.58
2018-04-28T01:37:47.894Z,100272.53
2018-04-28T01:40:16.193Z,100274.86
2018-04-28T01:42:47.155Z,100276.72
2018-04-28T01:45:28.157Z,100278.75
2018-04-28T01:48:13.901Z,100279.00
2018-04-28T01:50:44.433Z,100279.92
2018-04-28T01:53:12.702Z,100286.71
2018-04-28T01:58:48.429Z,100291.86
2018-04-28T02:01:17.579Z,100308.78
2018-04-28T02:03:48.786Z,100303.31
2018-04-28T02:06:25.482Z,100295.09
2018-04-28T02:09:09.442Z,100301.20
2018-04-28T02:11:43.314Z,100301.83
2018-04-28T02:17:12.053Z,100297.70
2018-04-28T02:19:46.188Z,100307.31
2018-04-28T02:22:21.960Z,100309.42
2018-04-28T02:25:01.189Z,100299.81
2018-04-28T02:30:30.098Z,100314.14
2018-04-28T02:33:02.063Z,100320.70
2018-04-28T02:35:35.023Z,100319.52
2018-04-28T02:38:28.629Z,100315.37
2018-04-28T02:41:04.729Z,100325.73
2018-04-28T02:43:44.621Z,100330.86
2018-04-28T02:46:17.364Z,100330.61
2018-04-28T02:52:22.914Z,100331.23
2018-04-28T02:54:54.898Z,100333.88
2018-04-28T03:00:53.103Z,100343.10
2018-04-28T03:03:23.084Z,100341.36
2018-04-28T03:05:51.353Z,100342.00
2018-04-28T03:08:22.560Z,100339.29
2018-04-28T03:10:51.362Z,100340.21
2018-04-28T03:13:35.145Z,100342.91
2018-04-28T03:16:06.829Z,100344.64
2018-04-28T03:18:44.513Z,100344.08
2018-04-28T03:21:14.043Z,100337.53
2018-04-28T03:23:42.831Z,100341.01
2018-04-28T03:29:12.414Z,100356.39
2018-04-28T03:31:40.444Z,100354.66
2018-04-28T03:34:15.153Z,100360.09
2018-04-28T03:37:07.408Z,100368.15
2018-04-28T03:39:36.175Z,100362.65
2018-04-28T03:42:04.167Z,100365.45
2018-04-28T03:44:33.090Z,100361.31
2018-04-28T03:47:22.497Z,100360.49
2018-04-28T03:49:51.213Z,100356.63
2018-04-28T03:52:22.171Z,100361.11
2018-04-28T03:54:51.713Z,100363.11
2018-04-28T03:57:40.200Z,100358.69
2018-04-28T04:03:19.544Z,100365.84
2018-04-28T04:09:10.793Z,100375.41
2018-04-28T04:11:57.362Z,100366.31
2018-04-28T04:17:32.947Z,100377.65
2018-04-28T04:23:19.610Z,100376.91
2018-04-28T04:25:55.053Z,100376.21
2018-04-28T04:28:23.050Z,100379.68
2018-04-28T04:30:58.966Z,100378.27
2018-04-28T04:33:35.565Z,100378.77
2018-04-28T04:36:05.352Z,100381.08
2018-04-28T04:38:33.325Z,100382.88
2018-04-28T04:41:07.361Z,100375.21
2018-04-28T04:43:40.830Z,100381.28
2018-04-28T04:46:26.250Z,100389.75
2018-04-28T04:49:00.029Z,100394.52
2018-04-28T04:54:37.205Z,100393.19
2018-04-28T04:57:26.682Z,100399.58
2018-04-28T05:03:15.281Z,100400.81
2018-04-28T05:05:50.133Z,100403.37
2018-04-28T05:08:43.674Z,100400.98
2018-04-28T05:14:25.930Z,100406.63
2018-04-28T05:17:07.670Z,100408.20
2018-04-28T05:23:08.069Z,100413.48
2018-04-28T05:28:52.511Z,100418.69
2018-04-28T05:31:29.602Z,100416.09
2018-04-28T05:34:04.481Z,100421.91
2018-04-28T05:36:43.389Z,100428.56
2018-04-28T05:39:18.209Z,100428.34
2018-04-28T05:41:46.941Z,100433.98
2018-04-28T05:44:20.785Z,100434.46
2018-04-28T05:46:53.751Z,100435.29
2018-04-28T05:52:35.093Z,100439.15
2018-04-28T05:55:16.805Z,100452.83
2018-04-28T06:01:06.018Z,100448.59
2018-04-28T06:03:39.997Z,100447.77
2018-04-28T06:06:13.918Z,100454.87
2018-04-28T06:12:08.325Z,100457.37
2018-04-28T06:14:48.126Z,100468.23
2018-04-28T06:20:27.685Z,100475.90
2018-04-28T06:22:55.893Z,100482.94
2018-04-28T06:25:24.130Z,100479.81
2018-04-28T06:27:52.117Z,100487.96
2018-04-28T06:30:20.113Z,100483.95
2018-04-28T06:32:48.110Z,100481.17
2018-04-28T06:35:16.129Z,100491.06
2018-04-28T06:37:44.139Z,100493.42
2018-04-28T06:40:12.125Z,100490.04
2018-04-28T06:42:40.143Z,100485.53
2018-04-28T06:45:08.122Z,100485.97
2018-04-28T06:47:36.138Z,100490.14
2018-04-28T06:50:04.145Z,100489.88
2018-04-28T06:52:32.134Z,100484.72
2018-04-28T06:55:00.125Z,100494.04
2018-04-28T06:57:28.145Z,100496.48
2018-04-28T06:59:56.169Z,100491.20
2018-04-28T07:02:24.160Z,100497.78
2018-04-28T07:04:52.613Z,100496.49
2018-04-28T07:07:20.633Z,100501.41
2018-04-28T07:09:48.825Z,100493.38
2018-04-28T07:12:16.845Z,100498.91
2018-04-28T07:14:44.838Z,100498.55
2018-04-28T07:17:12.829Z,100504.15
2018-04-28T07:19:40.833Z,100507.19
2018-04-28T07:22:08.829Z,100502.42
2018-04-28T07:24:36.820Z,100505.28
2018-04-28T07:27:04.821Z,100501.23
2018-04-28T07:29:32.822Z,100502.84
2018-04-28T07:32:01.447Z,100502.70
2018-04-28T07:34:29.445Z,100501.63
2018-04-28T07:36:57.459Z,100507.54
2018-04-28T07:39:25.465Z,100505.05
2018-04-28T07:41:53.453Z,100512.26
2018-04-28T07:44:21.457Z,100511.17
2018-04-28T07:46:49.467Z,100515.97
2018-04-28T07:49:17.445Z,100511.47
2018-04-28T07:51:45.430Z,100508.55
2018-04-28T07:54:13.466Z,100510.53
2018-04-28T07:56:41.441Z,100512.52
2018-04-28T07:59:09.429Z,100512.75
2018-04-28T08:01:37.441Z,100515.37
2018-04-28T08:04:05.437Z,100515.73
2018-04-28T08:06:33.438Z,100512.68
2018-04-28T08:09:01.491Z,100510.38
2018-04-28T08:11:29.590Z,100510.96
2018-04-28T08:13:57.660Z,100514.94
2018-04-28T08:16:25.673Z,100517.59
2018-04-28T08:18:53.680Z,100515.06
2018-04-28T08:21:21.658Z,100522.38
2018-04-28T08:23:49.751Z,100520.94
2018-04-28T08:26:17.669Z,100519.91
2018-04-28T08:28:45.656Z,100521.47
2018-04-28T08:31:13.701Z,100525.42
2018-04-28T08:33:41.685Z,100529.24
2018-04-28T08:36:09.678Z,100532.47
2018-04-28T08:38:37.700Z,100534.53
2018-04-28T08:41:05.692Z,100536.64
2018-04-28T08:43:33.684Z,100539.90
2018-04-28T08:46:01.683Z,100534.91
2018-04-28T08:48:29.674Z,100532.63
2018-04-28T08:50:57.665Z,100537.30
2018-04-28T08:53:25.665Z,100538.27
2018-04-28T08:55:53.649Z,100536.06
2018-04-28T08:58:21.636Z,100539.20
2018-04-28T09:00:55.449Z,100533.97
2018-04-28T09:03:23.436Z,100527.17
2018-04-28T09:05:51.434Z,100523.41
2018-04-28T09:08:19.433Z,100535.34
2018-04-28T09:10:47.697Z,100534.67
2018-04-28T09:13:15.970Z,100533.88
2018-04-28T09:15:44.251Z,100533.81
2018-04-28T09:18:12.521Z,100526.05
2018-04-28T09:20:40.794Z,100525.37
2018-04-28T09:23:09.081Z,100525.74
2018-04-28T09:25:37.354Z,100521.78
2018-04-28T09:28:05.633Z,100528.54
2018-04-28T09:30:33.914Z,100528.11
2018-04-28T09:33:02.203Z,100531.19
2018-04-28T09:35:30.482Z,100531.05
2018-04-28T09:37:58.746Z,100534.28
2018-04-28T09:40:27.009Z,100535.31
2018-04-28T09:42:55.284Z,100535.34
2018-04-28T09:45:23.573Z,100541.09
2018-04-28T09:47:51.844Z,100533.72
2018-04-28T09:50:20.113Z,100531.95
2018-04-28T09:52:48.410Z,100534.66
2018-04-28T09:55:16.675Z,100536.83
2018-04-28T09:57:56.754Z,100533.13
2018-04-28T10:00:30.426Z,100543.79
2018-04-28T10:02:58.714Z,100544.16
2018-04-28T10:05:26.973Z,100543.02
2018-04-28T10:07:55.238Z,100543.30
2018-04-28T10:10:23.525Z,100547.07
2018-04-28T10:12:51.790Z,100545.47
2018-04-28T10:15:20.061Z,100556.09
2018-04-28T10:17:48.345Z,100558.27
2018-04-28T10:20:16.654Z,100550.20
2018-04-28T10:22:44.894Z,100545.98
2018-04-28T10:25:13.180Z,100540.96
2018-04-28T10:27:41.453Z,100547.52
2018-04-28T10:30:09.724Z,100548.09
2018-04-28T10:32:38.025Z,100545.02
2018-04-28T10:35:06.294Z,100532.09
2018-04-28T10:37:34.563Z,100537.36
2018-04-28T10:40:02.845Z,100543.90
2018-04-28T10:42:31.117Z,100541.11
2018-04-28T10:44:59.380Z,100531.01
2018-04-28T10:47:27.668Z,100537.13
2018-04-28T10:49:55.933Z,100536.86
2018-04-28T10:52:24.210Z,100532.42
2018-04-28T10:54:52.493Z,100535.53
2018-04-28T10:57:20.773Z,100528.17
2018-04-28T10:59:49.048Z,100523.56
2018-04-28T11:02:17.339Z,100532.52
2018-04-28T11:04:45.610Z,100530.91
2018-04-28T11:07:13.865Z,100531.05
2018-04-28T11:09:42.159Z,100532.05
2018-04-28T11:12:10.425Z,100524.59
2018-04-28T11:14:38.685Z,100516.30
2018-04-28T11:17:06.976Z,100519.75
2018-04-28T11:19:35.273Z,100520.16
2018-04-28T11:22:03.517Z,100515.78
2018-04-28T11:24:31.823Z,100512.17
2018-04-28T11:27:00.090Z,100522.70
2018-04-28T11:29:28.358Z,100512.81
2018-04-28T11:31:56.638Z,100508.69
2018-04-28T11:34:24.906Z,100507.64
2018-04-28T11:36:53.190Z,100500.44
2018-04-28T11:39:21.474Z,100501.17
2018-04-28T11:41:49.729Z,100491.22
2018-04-28T11:44:18.018Z,100489.39
2018-04-28T11:46:46.277Z,100491.20
2018-04-28T11:49:14.545Z,100502.28
2018-04-28T11:51:42.841Z,100489.22
2018-04-28T11:54:11.102Z,100483.17
2018-04-28T11:56:39.377Z,100487.17
2018-04-28T11:59:07.672Z,100480.22
2018-04-28T12:01:35.930Z,100486.44
2018-04-28T12:04:04.201Z,100470.45
2018-04-28T12:06:32.485Z,100476.78
2018-04-28T12:09:00.758Z,100470.25
2018-04-28T12:11:29.029Z,100474.63
2018-04-28T12:13:57.406Z,100477.14
2018-04-28T12:16:25.730Z,100482.20
2018-04-28T12:18:53.987Z,100475.60
2018-04-28T12:21:22.272Z,100473.59
2018-04-28T12:23:50.534Z,100473.76
2018-04-28T12:26:18.812Z,100473.97
2018-04-28T12:28:47.116Z,100481.52
2018-04-28T12:31:15.385Z,100485.63
2018-04-28T12:33:43.656Z,100480.91
2018-04-28T12:36:11.969Z,100481.23
2018-04-28T12:38:40.233Z,100479.84
2018-04-28T12:41:08.498Z,100482.06
2018-04-28T12:43:36.780Z,100475.56
2018-04-28T12:46:05.042Z,100470.85
2018-04-28T12:48:33.314Z,100467.66
2018-04-28T12:51:01.590Z,100468.21
2018-04-28T12:53:29.858Z,100472.40
2018-04-28T12:55:58.125Z,100467.86
2018-04-28T12:58:26.417Z,100472.50
2018-04-28T13:00:54.679Z,100475.31
2018-04-28T13:03:22.945Z,100480.21
2018-04-28T13:05:51.241Z,100479.62
2018-04-28T13:08:19.514Z,100478.45
2018-04-28T13:10:47.779Z,100469.73
2018-04-28T13:13:16.056Z,100471.77
2018-04-28T13:15:44.684Z,100458.22
2018-04-28T13:18:12.921Z,100461.56
2018-04-28T13:20:41.200Z,100458.61
2018-04-28T13:23:09.461Z,100455.86
2018-04-28T13:25:37.722Z,100455.73
2018-04-28T13:28:05.998Z,100454.37
2018-04-28T13:30:34.268Z,100457.66
2018-04-28T13:33:02.541Z,100456.51
2018-04-28T13:35:30.812Z,100448.66
2018-04-28T13:37:59.085Z,100447.30
2018-04-28T13:40:27.346Z,100441.41
2018-04-28T13:42:55.620Z,100445.88
2018-04-28T13:45:23.881Z,100433.98
2018-04-28T13:47:52.150Z,100429.45
2018-04-28T13:50:20.421Z,100429.39
2018-04-28T13:52:48.687Z,100418.73
2018-04-28T13:55:16.962Z,100421.98
2018-04-28T13:57:45.226Z,100420.55
2018-04-28T14:00:13.510Z,100420.85
2018-04-28T14:02:41.777Z,100425.86
2018-04-28T14:05:10.053Z,100416.59
2018-04-28T14:07:38.320Z,100414.37
2018-04-28T14:10:06.622Z,100416.30
2018-04-28T14:12:34.953Z,100424.83
2018-04-28T14:15:03.234Z,100415.09
2018-04-28T14:17:31.505Z,100410.53
2018-04-28T14:19:59.775Z,100410.54
2018-04-28T14:22:28.037Z,100400.03
2018-04-28T14:24:56.306Z,100396.91
2018-04-28T14:27:24.591Z,100400.91
2018-04-28T14:29:52.858Z,100404.09
2018-04-28T14:32:21.149Z,100402.00
2018-04-28T14:34:49.413Z,100400.19
2018-04-28T14:37:17.690Z,100392.81
2018-04-28T14:39:45.962Z,100395.14
2018-04-28T14:42:14.238Z,100391.77
2018-04-28T14:44:42.506Z,100401.73
2018-04-28T14:47:10.786Z,100397.70
2018-04-28T14:49:39.057Z,100398.49
2018-04-28T14:52:07.326Z,100399.90
2018-04-28T14:54:35.593Z,100403.13
2018-04-28T14:57:03.874Z,100402.36
2018-04-28T14:59:32.145Z,100403.32
2018-04-28T15:02:00.787Z,100403.29
2018-04-28T15:04:29.042Z,100399.25
2018-04-28T15:06:57.349Z,100406.70
2018-04-28T15:09:25.631Z,100404.27
2018-04-28T15:11:53.900Z,100406.39
2018-04-28T15:14:22.157Z,100409.05
2018-04-28T15:16:50.424Z,100406.58
2018-04-28T15:19:18.699Z,100417.44
2018-04-28T15:21:46.969Z,100411.06
2018-04-28T15:24:15.249Z,100408.12
2018-04-28T15:26:43.514Z,100413.64
2018-04-28T15:29:11.825Z,100408.69
2018-04-28T15:31:40.089Z,100405.20
2018-04-28T15:34:08.370Z,100415.31
2018-04-28T15:36:36.669Z,100420.83
2018-04-28T15:39:05.884Z,100418.24
2018-04-28T15:41:34.176Z,100412.52
2018-04-28T15:44:02.453Z,100412.92
2018-04-28T15:46:30.747Z,100419.13
2018-04-28T15:48:59.013Z,100421.37
2018-04-28T15:51:27.284Z,100426.41
2018-04-28T15:53:55.561Z,100428.23
2018-04-28T15:56:23.829Z,100431.63
2018-04-28T15:58:52.102Z,100434.38
2018-04-28T16:01:20.370Z,100430.18
2018-04-28T16:03:48.645Z,100429.92
2018-04-28T16:06:16.909Z,100425.47
2018-04-28T16:08:45.174Z,100426.52
2018-04-28T16:11:13.449Z,100423.33
2018-04-28T16:13:41.728Z,100416.42
2018-04-28T16:16:09.998Z,100412.94
2018-04-28T16:18:38.265Z,100419.20
2018-04-28T16:21:06.541Z,100418.34
2018-04-28T16:23:34.809Z,100414.50
2018-04-28T16:26:03.085Z,100420.84
2018-04-28T16:28:31.353Z,100410.09
2018-04-28T16:30:59.625Z,100410.25
2018-04-28T16:33:27.893Z,100405.22
2018-04-28T16:35:56.165Z,100403.59
2018-04-28T16:38:24.434Z,100392.98
2018-04-28T16:40:52.708Z,100395.48
2018-04-28T16:43:20.970Z,100390.47
2018-04-28T16:45:49.241Z,100391.27
2018-04-28T16:48:17.510Z,100391.64
2018-04-28T16:50:46.114Z,100388.95
2018-04-28T16:53:14.365Z,100397.38
2018-04-28T16:55:42.643Z,100390.27
2018-04-28T16:58:10.917Z,100390.12
2018-04-28T17:00:39.190Z,100387.20
2018-04-28T17:03:07.474Z,100385.80
2018-04-28T17:05:35.766Z,100384.30
2018-04-28T17:08:04.038Z,100391.73
2018-04-28T17:10:32.306Z,100391.08
2018-04-28T17:13:00.581Z,100380.78
2018-04-28T17:15:28.862Z,100384.42
2018-04-28T17:17:57.140Z,100392.59
2018-04-28T17:20:25.401Z,100385.86
2018-04-28T17:22:53.678Z,100385.94
2018-04-28T17:25:21.949Z,100382.38
2018-04-28T17:27:50.225Z,100372.48
2018-04-28T17:30:18.521Z,100364.28
2018-04-28T17:32:46.785Z,100360.23
2018-04-28T17:35:15.059Z,100358.03
2018-04-28T17:37:43.333Z,100363.53
2018-04-28T17:40:11.599Z,100363.58
2018-04-28T17:42:39.894Z,100369.98
2018-04-28T17:45:08.163Z,100365.59
2018-04-28T17:47:36.433Z,100367.05
2018-04-28T17:50:04.710Z,100359.42
2018-04-28T17:52:32.986Z,100366.33
2018-04-28T17:55:01.268Z,100365.42
2018-04-28T17:57:29.547Z,100369.19
2018-04-28T17:59:57.831Z,100378.54
2018-04-28T18:02:26.100Z,100376.20
2018-04-28T18:04:54.375Z,100380.76
2018-04-28T18:07:22.724Z,100386.91
2018-04-28T18:09:50.926Z,100388.70
2018-04-28T18:12:19.199Z,100391.71
2018-04-28T18:14:47.553Z,100399.39
2018-04-28T18:17:15.833Z,100412.94
2018-04-28T18:19:44.106Z,100408.78
2018-04-28T18:22:12.385Z,100423.25
2018-04-28T18:24:40.665Z,100425.59
2018-04-28T18:27:09.006Z,100442.91
2018-04-28T18:29:37.218Z,100439.05
2018-04-28T18:32:05.493Z,100446.94
2018-04-28T18:34:33.761Z,100449.35
2018-04-28T18:37:02.038Z,100446.31
2018-04-28T18:39:30.309Z,100443.83
2018-04-28T18:41:58.585Z,100436.80
2018-04-28T18:44:26.861Z,100430.25
2018-04-28T18:46:55.186Z,100430.21
2018-04-28T18:49:23.418Z,100424.55
2018-04-28T18:51:51.781Z,100420.59
2018-04-28T18:54:19.971Z,100427.08
2018-04-28T18:56:48.275Z,100427.20
2018-04-28T18:59:16.573Z,100427.51
2018-04-28T19:01:45.217Z,100433.33
2018-04-28T19:04:13.485Z,100440.96
2018-04-28T19:06:41.763Z,100441.50
2018-04-28T19:09:10.041Z,100455.22
2018-04-28T19:11:38.317Z,100468.74
2018-04-28T19:14:06.668Z,100480.93
2018-04-28T19:16:34.862Z,100478.54
2018-04-28T19:19:03.142Z,100482.86
2018-04-28T19:21:31.417Z,100484.50
2018-04-28T19:23:59.709Z,100487.17
2018-04-28T19:26:28.000Z,100491.11
2018-04-28T19:28:56.288Z,100490.02
2018-04-28T19:31:24.548Z,100494.22
2018-04-28T19:33:52.824Z,100490.70
2018-04-28T19:36:21.100Z,100490.38
2018-04-28T19:38:49.391Z,100491.88
2018-04-28T19:41:17.661Z,100487.76
2018-04-28T19:43:45.945Z,100503.66
2018-04-28T19:46:14.210Z,100499.12
2018-04-28T19:48:42.554Z,100502.39
2018-04-28T19:51:10.757Z,100510.87
2018-04-28T19:53:39.027Z,100503.22
2018-04-28T19:56:07.322Z,100499.45
2018-04-28T19:58:35.577Z,100488.33
2018-04-28T20:01:03.861Z,100491.17
2018-04-28T20:03:32.134Z,100493.81
2018-04-28T20:06:00.413Z,100501.58
2018-04-28T20:08:28.693Z,100499.56
2018-04-28T20:10:57.001Z,100507.14
2018-04-28T20:13:25.268Z,100501.23
2018-04-28T20:15:53.553Z,100514.47
2018-04-28T20:18:21.821Z,100509.44
2018-04-28T20:20:50.100Z,100503.12
2018-04-28T20:23:30.255Z,100502.83
2018-04-28T20:25:58.538Z,100509.00
2018-04-28T20:28:26.817Z,100507.80
2018-04-28T20:30:55.112Z,100505.88
2018-04-28T20:33:23.377Z,100511.53
2018-04-28T20:35:52.143Z,100512.12
2018-04-28T20:38:20.334Z,100509.70
2018-04-28T20:40:48.601Z,100502.77
2018-04-28T20:43:16.886Z,100510.33
2018-04-28T20:45:45.153Z,100509.92
2018-04-28T20:48:15.828Z,100508.16
2018-04-28T20:50:46.938Z,100512.55
2018-04-28T20:53:15.211Z,100514.87
2018-04-28T20:55:43.477Z,100513.44
2018-04-28T20:58:11.753Z,100523.86
2018-04-28T21:00:40.020Z,100520.69
2018-04-28T21:03:08.293Z,100512.55
2018-04-28T21:05:36.566Z,100521.47
2018-04-28T21:08:04.867Z,100521.75
2018-04-28T21:10:33.135Z,100516.88
2018-04-28T21:13:01.412Z,100519.55
2018-04-28T21:15:29.687Z,100516.34
2018-04-28T21:17:57.961Z,100527.02
2018-04-28T21:20:26.233Z,100515.37
2018-04-28T21:22:54.513Z,100519.03
2018-04-28T21:25:22.785Z,100508.45
2018-04-28T21:27:51.062Z,100513.08
2018-04-28T21:30:19.325Z,100512.77
2018-04-28T21:32:47.605Z,100510.03
2018-04-28T21:35:15.901Z,100510.67
2018-04-28T21:37:44.256Z,100512.92
2018-04-28T21:40:12.446Z,100508.37
2018-04-28T21:42:40.720Z,100505.48
2018-04-28T21:45:09.002Z,100508.49
2018-04-28T21:47:37.269Z,100506.04
2018-04-28T21:50:05.571Z,100499.89
2018-04-28T21:52:33.836Z,100499.28
2018-04-28T21:55:02.146Z,100494.30
2018-04-28T21:57:30.413Z,100488.63
2018-04-28T21:59:58.690Z,100489.81
2018-04-28T22:02:26.965Z,100487.16
2018-04-28T22:04:55.246Z,100491.38
2018-04-28T22:07:23.513Z,100488.16
2018-04-28T22:09:51.786Z,100484.13
2018-04-28T22:12:20.053Z,100485.06
2018-04-28T22:14:48.333Z,100482.30
2018-04-28T22:17:16.605Z,100485.32
2018-04-28T22:19:44.868Z,100484.56
2018-04-28T22:22:13.142Z,100484.47
2018-04-28T22:24:41.409Z,100484.13
2018-04-28T22:27:09.685Z,100493.17
2018-04-28T22:29:37.969Z,100489.60
2018-04-28T22:32:06.262Z,100489.94
2018-04-28T22:34:34.521Z,100498.16
2018-04-28T22:37:02.817Z,100498.22
2018-04-28T22:39:31.090Z,100509.75
2018-04-28T22:41:59.365Z,100507.48
2018-04-28T22:44:27.632Z,100509.14
2018-04-28T22:46:55.906Z,100509.66
2018-04-28T22:49:24.187Z,100515.98
2018-04-28T22:51:52.465Z,100516.11
2018-04-28T22:54:20.729Z,100514.49
2018-04-28T22:56:49.005Z,100515.50
2018-04-28T22:59:17.273Z,100515.78
2018-04-28T23:01:45.553Z,100511.75
2018-04-28T23:04:13.822Z,100514.73
2018-04-28T23:06:42.101Z,100513.07
2018-04-28T23:09:10.361Z,100509.56
2018-04-28T23:11:38.630Z,100507.33
2018-04-28T23:14:06.905Z,100504.08
2018-04-28T23:16:35.174Z,100506.21
2018-04-28T23:19:03.454Z,100514.45
2018-04-28T23:24:29.018Z,100508.54
2018-04-28T23:26:57.288Z,100509.48
2018-04-28T23:29:25.592Z,100507.06
2018-04-28T23:31:53.862Z,100500.08
2018-04-28T23:34:22.143Z,100501.02
2018-04-28T23:36:50.429Z,100500.66
2018-04-28T23:39:18.698Z,100498.33
2018-04-28T23:41:46.975Z,100499.98
2018-04-28T23:44:15.259Z,100498.12
2018-04-28T23:46:43.539Z,100495.17
2018-04-28T23:49:11.837Z,100495.68
2018-04-28T23:51:40.098Z,100494.02
2018-04-28T23:54:08.383Z,100497.28
2018-04-28T23:56:36.650Z,100503.91
2018-04-28T23:59:04.930Z,100490.24
